Time;durP1;ratioP1;P1;durP2;ratioP2;P2;SDS_P1;SDS_P2;PMS_P1;PMS_P2;Temp;Humidity;BMP_temperature;BMP_pressure;BME280_temperature;BME280_humidity;BME280_pressure;Samples;Min_cycle;Max_cycle;Signal;HPM_P1;HPM_P2
2022/05/26 00:00:50;;;;;;;2.15;0.80;;;17.40;99.90;;;;;;4976599;28;20034;-93
2022/05/26 00:03:16;;;;;;;2.05;0.70;;;17.30;99.90;;;;;;4973616;28;20034;-93
2022/05/26 00:05:41;;;;;;;1.17;0.70;;;17.30;99.90;;;;;;4966325;28;20022;-92
2022/05/26 00:08:07;;;;;;;1.88;0.70;;;17.30;99.90;;;;;;4981829;28;20439;-92
2022/05/26 00:10:34;;;;;;;1.38;0.60;;;17.60;99.90;;;;;;4981175;28;20027;-93
2022/05/26 00:13:00;;;;;;;0.80;0.60;;;17.20;99.90;;;;;;4980988;28;20121;-93
2022/05/26 00:15:26;;;;;;;1.73;0.60;;;17.10;99.90;;;;;;4961791;28;20113;-93
2022/05/26 00:17:52;;;;;;;1.17;0.63;;;17.10;99.90;;;;;;4977067;28;20400;-92
2022/05/26 00:20:18;;;;;;;1.55;0.70;;;17.10;99.90;;;;;;4978858;28;20037;-92
2022/05/26 00:22:44;;;;;;;2.55;0.80;;;17.10;99.90;;;;;;4974129;28;20034;-92
2022/05/26 00:25:10;;;;;;;1.30;0.60;;;17.10;99.90;;;;;;4974777;28;20029;-92
2022/05/26 00:27:35;;;;;;;5.38;0.75;;;17.20;99.90;;;;;;4979958;28;20652;-93
2022/05/26 00:30:01;;;;;;;0.70;0.60;;;17.00;99.90;;;;;;4958933;28;20027;-92
2022/05/26 00:32:26;;;;;;;3.38;0.68;;;16.90;99.90;;;;;;4994140;28;20061;-92
2022/05/26 00:34:52;;;;;;;2.22;0.85;;;16.90;99.90;;;;;;4973163;28;20158;-93
2022/05/26 00:37:17;;;;;;;1.73;0.73;;;16.80;99.90;;;;;;4961568;28;20027;-93
2022/05/26 00:39:43;;;;;;;0.82;0.70;;;16.90;99.90;;;;;;4983553;28;20026;-92
2022/05/26 00:42:10;;;;;;;2.05;0.95;;;16.90;99.90;;;;;;4990315;28;20038;-92
2022/05/26 00:44:36;;;;;;;1.95;0.80;;;16.80;99.90;;;;;;4976254;28;20058;-92
2022/05/26 00:47:04;;;;;;;1.73;0.77;;;16.80;99.90;;;;;;4979848;28;20488;-92
2022/05/26 00:50:12;;;;;;;1.95;1.00;;;16.80;99.90;;;;;;4974263;28;20037;-92
2022/05/26 00:52:46;;;;;;;2.20;0.77;;;16.70;99.90;;;;;;4977381;28;20047;-93
2022/05/26 00:55:38;;;;;;;1.08;0.90;;;16.70;99.90;;;;;;4986353;28;20506;-93
2022/05/26 00:58:15;;;;;;;2.88;0.80;;;16.60;99.90;;;;;;4958080;28;20121;-93
2022/05/26 01:00:41;;;;;;;1.52;0.90;;;16.50;99.90;;;;;;4955167;28;20030;-93
2022/05/26 01:03:27;;;;;;;0.88;0.80;;;16.50;99.90;;;;;;4990878;28;20042;-93
2022/05/26 01:06:18;;;;;;;1.05;0.88;;;16.50;99.90;;;;;;4961056;28;20041;-93
2022/05/26 01:08:57;;;;;;;0.90;0.77;;;16.60;99.90;;;;;;4958384;28;20039;-92
2022/05/26 01:11:24;;;;;;;1.38;0.70;;;16.60;99.90;;;;;;4975600;28;20050;-93
2022/05/26 01:14:01;;;;;;;2.28;0.70;;;16.60;99.90;;;;;;4973843;28;20027;-92
2022/05/26 01:16:47;;;;;;;1.58;0.90;;;16.50;99.90;;;;;;4977563;28;20046;-93
2022/05/26 01:19:30;;;;;;;2.20;0.90;;;16.40;99.90;;;;;;4971697;28;20093;-92
2022/05/26 01:22:11;;;;;;;0.98;0.85;;;16.40;99.90;;;;;;4973187;28;20038;-93
2022/05/26 01:24:48;;;;;;;2.63;0.70;;;16.30;99.90;;;;;;4979210;28;20045;-93
2022/05/26 01:27:27;;;;;;;1.90;0.63;;;16.30;99.90;;;;;;4978816;28;20117;-92
2022/05/26 01:30:04;;;;;;;1.90;0.70;;;16.40;99.90;;;;;;4961062;28;20030;-93
2022/05/26 01:32:33;;;;;;;1.15;0.80;;;16.40;99.90;;;;;;4977307;28;20117;-92
2022/05/26 01:35:33;;;;;;;1.95;0.70;;;16.20;99.90;;;;;;4973089;28;20034;-93
2022/05/26 01:38:33;;;;;;;1.48;0.80;;;16.20;99.90;;;;;;4981037;28;20038;-92
2022/05/26 01:41:40;;;;;;;2.13;0.85;;;16.10;99.90;;;;;;4979162;28;20034;-93
2022/05/26 01:44:08;;;;;;;0.93;0.80;;;16.20;99.90;;;;;;4880428;29;20056;-92
2022/05/26 01:46:41;;;;;;;1.95;0.85;;;16.30;99.90;;;;;;4889761;29;20509;-93
2022/05/26 01:49:19;;;;;;;2.25;0.80;;;16.20;99.90;;;;;;4884730;29;20029;-93
2022/05/26 01:52:13;;;;;;;1.40;0.70;;;16.10;99.90;;;;;;4882634;29;20032;-92
2022/05/26 01:55:17;;;;;;;3.95;0.90;;;16.10;99.90;;;;;;4882372;29;20049;-93
2022/05/26 01:57:56;;;;;;;1.70;0.80;;;16.00;99.90;;;;;;4880200;29;20045;-92
2022/05/26 02:00:22;;;;;;;2.17;0.70;;;15.90;99.90;;;;;;4870148;29;20044;-93
2022/05/26 02:03:03;;;;;;;1.38;0.88;;;15.80;99.90;;;;;;4894278;29;20025;-93
2022/05/26 02:05:33;;;;;;;3.30;0.93;;;15.80;99.90;;;;;;4894217;29;20076;-93
2022/05/26 02:08:15;;;;;;;1.10;0.70;;;15.90;99.90;;;;;;4878228;29;20477;-92
2022/05/26 02:10:47;;;;;;;1.67;0.85;;;15.80;99.90;;;;;;4889962;29;20058;-92
2022/05/26 02:13:21;;;;;;;1.95;0.93;;;15.80;99.90;;;;;;4876237;29;20047;-93
2022/05/26 02:15:57;;;;;;;1.80;0.70;;;15.90;99.90;;;;;;4874488;29;20031;-92
2022/05/26 02:18:30;;;;;;;1.42;0.80;;;15.90;99.90;;;;;;4875136;29;20051;-92
2022/05/26 02:21:04;;;;;;;0.98;0.77;;;15.80;99.90;;;;;;4961125;28;20073;-93
2022/05/26 02:23:36;;;;;;;2.00;1.00;;;15.80;99.90;;;;;;4977219;28;20038;-93
2022/05/26 02:26:03;;;;;;;1.55;0.80;;;15.80;99.90;;;;;;4978590;28;20022;-93
2022/05/26 02:29:51;;;;;;;1.42;0.90;;;15.80;99.90;;;;;;4960607;28;20529;-93
2022/05/26 02:31:20;;;;;;;0.98;0.70;;;15.70;99.90;;;;;;4977572;28;20023;-93
2022/05/26 02:33:46;;;;;;;3.55;0.90;;;15.70;99.90;;;;;;4976622;28;20034;-93
2022/05/26 02:36:12;;;;;;;1.67;1.00;;;15.70;99.90;;;;;;4973501;28;20109;-93
2022/05/26 02:38:39;;;;;;;2.25;0.75;;;15.80;99.90;;;;;;4957487;28;20039;-93
2022/05/26 02:41:04;;;;;;;3.00;0.98;;;15.70;99.90;;;;;;4979613;28;20023;-93
2022/05/26 02:43:33;;;;;;;1.92;0.77;;;15.70;99.90;;;;;;4958803;28;20042;-92
2022/05/26 02:46:01;;;;;;;0.77;0.70;;;15.60;99.90;;;;;;4979776;28;20028;-93
2022/05/26 02:49:04;;;;;;;1.33;0.80;;;15.50;99.90;;;;;;4965246;28;20035;-93
2022/05/26 02:51:38;;;;;;;1.40;0.80;;;15.40;99.90;;;;;;4976010;28;20124;-92
2022/05/26 02:54:35;;;;;;;0.82;0.70;;;15.50;99.90;;;;;;4978025;28;20379;-93
2022/05/26 02:57:14;;;;;;;1.55;0.90;;;15.50;99.90;;;;;;4961007;28;20550;-93
2022/05/26 02:59:52;;;;;;;2.10;0.70;;;15.50;99.90;;;;;;4956888;28;20096;-93
2022/05/26 03:02:34;;;;;;;1.42;0.73;;;15.40;99.90;;;;;;4956148;28;20038;-93
2022/05/26 03:05:19;;;;;;;3.65;1.20;;;15.50;99.90;;;;;;4973837;28;20099;-93
2022/05/26 03:07:49;;;;;;;3.75;0.90;;;15.40;99.90;;;;;;4977489;28;20042;-93
2022/05/26 03:10:16;;;;;;;1.00;0.77;;;15.40;99.90;;;;;;4979886;28;20025;-92
2022/05/26 03:12:41;;;;;;;1.52;0.90;;;15.40;99.90;;;;;;4978002;28;20072;-93
2022/05/26 03:15:08;;;;;;;1.63;0.70;;;15.40;99.90;;;;;;4981689;28;20433;-92
2022/05/26 03:17:34;;;;;;;0.90;0.80;;;15.30;99.90;;;;;;4987882;28;20069;-92
2022/05/26 03:20:00;;;;;;;2.72;0.90;;;15.40;99.90;;;;;;4976071;28;20093;-93
2022/05/26 03:22:26;;;;;;;1.15;0.80;;;15.20;99.90;;;;;;4975635;28;20024;-93
2022/05/26 03:24:51;;;;;;;3.88;0.90;;;15.30;99.90;;;;;;4977207;28;20089;-93
2022/05/26 03:27:17;;;;;;;2.00;0.77;;;15.20;99.90;;;;;;4976422;28;20549;-93
2022/05/26 03:29:43;;;;;;;1.75;0.80;;;15.20;99.90;;;;;;4972230;28;20070;-93
2022/05/26 03:32:09;;;;;;;1.80;0.80;;;15.20;99.90;;;;;;4973139;28;20062;-93
2022/05/26 03:42:50;;;;;;;1.95;1.00;;;15.20;99.90;;;;;;4976793;28;20549;-93
2022/05/26 03:45:20;;;;;;;2.80;0.90;;;15.20;99.90;;;;;;4977794;28;20023;-92
2022/05/26 03:47:46;;;;;;;2.72;0.80;;;15.10;99.90;;;;;;4955945;28;20042;-94
2022/05/26 03:50:12;;;;;;;3.08;1.00;;;14.90;99.90;;;;;;4974823;28;20502;-93
2022/05/26 03:52:37;;;;;;;1.30;0.82;;;14.90;99.90;;;;;;4976206;28;20032;-93
2022/05/26 03:55:04;;;;;;;2.63;0.85;;;14.90;99.90;;;;;;4959752;28;20463;-93
2022/05/26 03:57:31;;;;;;;1.65;0.90;;;15.00;99.90;;;;;;4975620;28;20033;-93
2022/05/26 03:59:58;;;;;;;0.95;0.80;;;15.00;99.90;;;;;;4954654;28;20034;-93
2022/05/26 04:02:24;;;;;;;3.10;0.88;;;14.90;99.90;;;;;;4976636;28;20495;-94
2022/05/26 04:04:50;;;;;;;1.70;0.90;;;14.90;99.90;;;;;;4972199;28;20395;-93
2022/05/26 04:07:16;;;;;;;2.80;0.90;;;14.80;99.90;;;;;;4976071;28;20042;-93
2022/05/26 04:09:41;;;;;;;2.42;1.20;;;15.00;99.90;;;;;;4976807;28;20027;-93
2022/05/26 04:12:09;;;;;;;1.92;1.05;;;15.00;99.90;;;;;;4958854;28;20030;-93
2022/05/26 04:14:35;;;;;;;2.40;0.90;;;15.10;99.90;;;;;;4956117;28;20114;-93
2022/05/26 04:17:02;;;;;;;2.95;1.00;;;15.00;99.90;;;;;;4972855;28;20050;-93
2022/05/26 04:19:27;;;;;;;1.35;0.90;;;15.00;99.90;;;;;;4971712;28;20050;-93
2022/05/26 04:24:37;;;;;;;3.40;1.08;;;14.90;99.90;;;;;;4975434;28;20033;-93
2022/05/26 04:27:04;;;;;;;3.85;1.10;;;14.80;99.90;;;;;;4972479;28;20031;-93
2022/05/26 04:29:31;;;;;;;1.65;0.80;;;14.80;99.90;;;;;;4971120;28;20495;-93
2022/05/26 04:31:56;;;;;;;1.08;0.90;;;14.90;99.90;;;;;;4975558;28;20495;-93
2022/05/26 04:34:22;;;;;;;1.83;0.88;;;14.80;99.90;;;;;;4975603;28;20045;-93
2022/05/26 04:36:48;;;;;;;1.10;0.80;;;14.80;99.90;;;;;;4974666;28;20027;-93
2022/05/26 04:39:16;;;;;;;1.77;0.82;;;14.90;99.90;;;;;;4973888;28;20094;-93
2022/05/26 04:41:43;;;;;;;2.00;0.95;;;14.90;99.90;;;;;;4987628;28;20118;-92
2022/05/26 04:44:10;;;;;;;1.38;0.90;;;14.90;99.90;;;;;;4992994;28;20038;-93
2022/05/26 04:46:36;;;;;;;3.92;0.93;;;14.90;99.90;;;;;;4985538;28;20049;-95
2022/05/26 04:49:03;;;;;;;2.80;0.80;;;14.90;99.90;;;;;;4977364;28;20502;-93
2022/05/26 04:51:29;;;;;;;2.90;1.00;;;15.00;99.90;;;;;;4988126;28;20058;-93
2022/05/26 04:53:55;;;;;;;2.15;0.90;;;15.20;99.90;;;;;;4988275;28;20125;-93
2022/05/26 04:56:21;;;;;;;1.65;0.77;;;15.20;99.90;;;;;;4979081;28;20026;-94
2022/05/26 04:58:47;;;;;;;3.33;0.93;;;15.10;99.90;;;;;;4979825;28;20407;-93
2022/05/26 05:01:17;;;;;;;2.08;1.00;;;15.20;99.90;;;;;;4978702;28;20027;-93
2022/05/26 05:03:43;;;;;;;5.82;1.00;;;15.20;99.90;;;;;;4978326;28;20499;-93
2022/05/26 05:06:09;;;;;;;2.67;1.00;;;15.20;99.90;;;;;;4983619;28;20035;-93
2022/05/26 05:08:35;;;;;;;1.05;0.90;;;15.10;99.90;;;;;;4989473;28;20058;-93
2022/05/26 05:11:01;;;;;;;2.22;1.10;;;15.10;99.90;;;;;;4979750;28;20038;-93
2022/05/26 05:13:27;;;;;;;2.00;1.23;;;15.10;99.90;;;;;;4979173;28;20038;-94
2022/05/26 05:16:27;;;;;;;1.52;1.23;;;15.00;99.90;;;;;;4979726;28;20042;-93
2022/05/26 05:18:54;;;;;;;2.20;1.20;;;15.10;99.90;;;;;;4979011;28;20023;-93
2022/05/26 05:21:45;;;;;;;2.35;1.02;;;15.20;99.90;;;;;;4977569;28;20081;-93
2022/05/26 05:24:22;;;;;;;2.70;1.02;;;15.20;99.90;;;;;;4958162;28;20038;-93
2022/05/26 05:26:52;;;;;;;4.05;1.17;;;15.20;99.90;;;;;;4968721;28;20031;-93
2022/05/26 05:29:21;;;;;;;2.53;1.00;;;15.10;99.90;;;;;;4980518;28;20027;-93
2022/05/26 05:31:52;;;;;;;1.58;1.10;;;15.20;99.90;;;;;;4989391;28;20123;-93
2022/05/26 05:34:23;;;;;;;2.40;1.25;;;15.30;99.90;;;;;;4979105;28;20045;-93
2022/05/26 05:36:49;;;;;;;3.80;1.10;;;15.20;99.90;;;;;;4977674;28;20035;-93
2022/05/26 05:39:15;;;;;;;1.17;0.90;;;15.40;99.90;;;;;;4960917;28;20029;-93
2022/05/26 05:41:40;;;;;;;3.00;1.10;;;15.40;99.90;;;;;;4990793;28;20628;-93
2022/05/26 05:44:06;;;;;;;2.15;0.98;;;15.40;99.90;;;;;;4980959;28;20026;-93
2022/05/26 05:46:53;;;;;;;2.60;1.20;;;15.40;99.90;;;;;;4988317;28;20030;-93
2022/05/26 05:49:22;;;;;;;2.85;1.33;;;15.40;99.90;;;;;;4979168;28;20027;-93
2022/05/26 05:51:49;;;;;;;2.03;1.17;;;15.40;99.90;;;;;;4978258;28;20019;-93
2022/05/26 05:54:14;;;;;;;3.30;1.20;;;15.40;99.90;;;;;;4960502;28;20033;-93
2022/05/26 05:56:40;;;;;;;1.75;1.30;;;15.30;99.90;;;;;;4958512;28;20511;-93
2022/05/26 05:59:06;;;;;;;2.92;1.30;;;15.30;99.90;;;;;;4980125;28;20019;-93
2022/05/26 06:01:32;;;;;;;2.70;1.20;;;15.50;99.90;;;;;;4978614;28;20490;-93
2022/05/26 06:03:57;;;;;;;1.38;1.10;;;15.70;99.90;;;;;;4976840;28;20069;-90
2022/05/26 06:06:23;;;;;;;2.10;1.30;;;15.50;99.90;;;;;;4971829;28;20065;-90
2022/05/26 06:08:49;;;;;;;4.07;1.40;;;15.70;99.90;;;;;;4954569;28;20546;-89
2022/05/26 06:11:14;;;;;;;1.10;1.00;;;15.70;99.90;;;;;;4977588;28;20114;-89
2022/05/26 06:13:41;;;;;;;3.75;1.52;;;15.70;99.90;;;;;;4973159;28;20166;-90
2022/05/26 06:16:07;;;;;;;3.00;1.17;;;15.90;99.90;;;;;;4959881;28;20054;-90
2022/05/26 06:18:33;;;;;;;4.20;1.25;;;16.10;99.90;;;;;;4954433;28;20027;-89
2022/05/26 06:21:04;;;;;;;1.88;1.05;;;16.30;99.90;;;;;;4968022;28;20094;-88
2022/05/26 06:23:30;;;;;;;1.40;1.10;;;16.40;99.90;;;;;;4957686;28;20027;-90
2022/05/26 06:25:56;;;;;;;2.83;1.02;;;16.40;99.90;;;;;;4972598;28;20027;-91
2022/05/26 06:31:08;;;;;;;3.63;1.30;;;16.60;99.90;;;;;;4973749;28;20030;-91
2022/05/26 06:39:03;;;;;;;1.40;1.20;;;16.90;99.90;;;;;;4963234;28;20533;-91
2022/05/26 06:44:13;;;;;;;1.55;1.20;;;16.90;99.90;;;;;;4981701;28;20510;-91
2022/05/26 06:46:39;;;;;;;2.38;1.27;;;16.90;99.90;;;;;;4970439;28;20027;-93
2022/05/26 06:49:06;;;;;;;1.30;1.13;;;17.00;99.90;;;;;;4979492;28;20041;-92
2022/05/26 06:51:34;;;;;;;2.50;1.17;;;17.10;99.90;;;;;;4980270;28;20034;-94
2022/05/26 06:53:59;;;;;;;3.47;1.13;;;17.10;99.90;;;;;;4976436;28;20035;-93
2022/05/26 06:56:25;;;;;;;1.77;1.30;;;17.10;99.90;;;;;;4980706;28;20076;-92
2022/05/26 06:58:51;;;;;;;2.13;0.93;;;17.10;99.90;;;;;;4977252;28;20537;-93
2022/05/26 07:01:17;;;;;;;1.63;1.10;;;17.10;99.90;;;;;;4958083;28;20554;-93
2022/05/26 07:03:43;;;;;;;1.35;0.88;;;17.10;99.90;;;;;;4975794;28;20039;-94
2022/05/26 07:06:16;;;;;;;1.92;1.27;;;17.20;99.90;;;;;;4958624;28;20120;-92
2022/05/26 07:08:46;;;;;;;1.92;1.30;;;17.20;99.90;;;;;;4957494;28;20023;-93
2022/05/26 07:11:13;;;;;;;1.65;1.00;;;17.30;99.90;;;;;;4974447;28;20100;-91
2022/05/26 07:13:38;;;;;;;1.70;1.25;;;17.30;99.90;;;;;;4974163;28;20034;-92
2022/05/26 07:16:05;;;;;;;3.50;1.17;;;17.40;99.90;;;;;;4978062;28;20415;-91
2022/05/26 07:18:31;;;;;;;2.65;1.20;;;17.50;99.90;;;;;;4961949;28;20034;-92
2022/05/26 07:20:57;;;;;;;1.30;1.20;;;17.50;99.90;;;;;;4973539;28;20035;-93
2022/05/26 07:23:22;;;;;;;1.55;1.15;;;17.50;99.90;;;;;;4987343;28;20034;-91
2022/05/26 07:25:48;;;;;;;1.55;1.13;;;17.80;99.90;;;;;;4977242;28;20049;-91
2022/05/26 07:28:13;;;;;;;2.15;1.17;;;17.80;99.90;;;;;;4981982;28;20042;-90
2022/05/26 07:30:40;;;;;;;1.70;1.27;;;17.80;99.90;;;;;;4963202;28;20559;-90
2022/05/26 07:33:06;;;;;;;1.35;1.20;;;17.90;99.90;;;;;;4967675;28;20483;-91
2022/05/26 07:35:32;;;;;;;1.70;1.20;;;18.00;99.90;;;;;;4975194;28;20033;-91
2022/05/26 07:43:29;;;;;;;1.70;1.13;;;18.20;99.90;;;;;;4976010;28;20085;-90
2022/05/26 07:45:54;;;;;;;1.70;0.98;;;18.30;99.90;;;;;;4981667;28;20436;-91
2022/05/26 07:48:20;;;;;;;3.25;1.20;;;18.30;99.90;;;;;;4963476;28;20137;-91
2022/05/26 07:50:46;;;;;;;2.47;1.00;;;18.30;99.90;;;;;;4987825;28;20023;-91
2022/05/26 07:53:11;;;;;;;3.33;1.48;;;18.30;99.90;;;;;;4973923;28;20042;-91
2022/05/26 07:55:42;;;;;;;2.88;0.93;;;18.20;99.90;;;;;;4956634;28;20051;-91
2022/05/26 07:58:11;;;;;;;2.65;1.00;;;18.40;99.90;;;;;;4961167;28;20022;-91
2022/05/26 08:00:37;;;;;;;2.28;1.08;;;18.40;99.90;;;;;;4975171;28;20495;-90
2022/05/26 08:03:03;;;;;;;1.52;0.85;;;18.60;99.90;;;;;;4953984;28;20047;-89
2022/05/26 08:05:29;;;;;;;1.30;1.08;;;18.60;99.90;;;;;;4973158;28;20058;-88
2022/05/26 08:07:55;;;;;;;2.03;0.90;;;18.70;99.90;;;;;;4955375;28;20097;-89
2022/05/26 08:10:20;;;;;;;3.53;1.40;;;18.80;99.90;;;;;;4957414;28;20391;-89
2022/05/26 08:12:46;;;;;;;2.35;1.10;;;19.00;99.90;;;;;;4959947;28;20110;-88
2022/05/26 08:15:12;;;;;;;1.77;1.08;;;18.90;99.90;;;;;;4974027;28;20442;-90
2022/05/26 08:17:39;;;;;;;1.45;0.90;;;18.80;99.90;;;;;;4969467;28;20422;-89
2022/05/26 08:20:06;;;;;;;2.65;0.90;;;18.90;99.90;;;;;;4987209;28;20101;-90
2022/05/26 08:22:32;;;;;;;2.08;1.10;;;19.00;99.90;;;;;;4975566;28;20089;-90
2022/05/26 08:24:59;;;;;;;3.05;1.52;;;19.10;99.90;;;;;;4970940;28;20019;-90
2022/05/26 08:27:25;;;;;;;3.75;1.23;;;19.20;99.90;;;;;;4959781;28;20038;-91
2022/05/26 08:29:54;;;;;;;4.22;0.88;;;19.20;99.90;;;;;;4957916;28;20104;-90
2022/05/26 08:32:21;;;;;;;3.22;0.90;;;19.20;99.90;;;;;;4981626;28;20030;-90
2022/05/26 08:34:47;;;;;;;3.47;0.80;;;19.50;99.90;;;;;;4975452;28;20074;-90
2022/05/26 08:37:19;;;;;;;0.98;0.80;;;19.60;99.90;;;;;;4962921;28;20030;-91
2022/05/26 08:39:45;;;;;;;1.83;0.70;;;19.70;99.90;;;;;;4979015;28;20148;-90
2022/05/26 08:42:17;;;;;;;2.28;0.77;;;19.70;99.90;;;;;;4975689;28;20112;-90
2022/05/26 08:44:43;;;;;;;1.70;0.98;;;19.70;99.90;;;;;;4958787;28;20411;-90
2022/05/26 08:47:18;;;;;;;1.60;0.75;;;19.80;99.90;;;;;;4992266;28;20045;-90
2022/05/26 08:49:59;;;;;;;1.73;0.90;;;19.70;99.90;;;;;;4974014;28;20035;-90
2022/05/26 08:52:32;;;;;;;3.42;0.70;;;19.70;99.90;;;;;;4979182;28;20027;-91
2022/05/26 08:55:06;;;;;;;3.08;0.80;;;19.90;99.90;;;;;;4978170;28;20034;-90
2022/05/26 08:57:40;;;;;;;1.55;0.77;;;20.00;99.90;;;;;;4961871;28;20475;-91
2022/05/26 09:00:11;;;;;;;1.50;0.88;;;20.10;99.90;;;;;;4990919;28;20038;-91
2022/05/26 09:02:37;;;;;;;2.70;0.95;;;20.10;99.90;;;;;;4975043;28;20035;-91
2022/05/26 09:05:21;;;;;;;5.68;0.77;;;20.20;99.90;;;;;;4974260;28;20031;-90
2022/05/26 09:13:46;;;;;;;3.38;0.90;;;20.50;99.90;;;;;;4990655;28;20096;-90
2022/05/26 09:16:12;;;;;;;4.90;0.68;;;20.60;99.90;;;;;;4960100;28;20562;-91
2022/05/26 09:18:40;;;;;;;1.90;0.70;;;20.60;99.90;;;;;;4974213;28;20035;-90
2022/05/26 09:21:23;;;;;;;1.27;0.70;;;20.70;99.90;;;;;;4984519;28;20050;-90
2022/05/26 09:23:50;;;;;;;2.42;0.70;;;20.80;99.90;;;;;;4969642;28;20027;-91
2022/05/26 09:26:18;;;;;;;0.52;0.50;;;20.80;99.90;;;;;;4981274;28;20050;-91
2022/05/26 09:28:48;;;;;;;1.88;1.10;;;20.60;99.90;;;;;;4971708;28;20043;-91
2022/05/26 09:31:31;;;;;;;1.25;0.68;;;20.80;99.90;;;;;;4976419;28;20075;-91
2022/05/26 09:34:02;;;;;;;1.17;0.80;;;20.80;99.90;;;;;;4977297;28;20487;-91
2022/05/26 09:36:42;;;;;;;2.63;0.75;;;21.00;99.90;;;;;;4972419;28;20027;-91
2022/05/26 09:39:09;;;;;;;2.40;0.65;;;20.90;99.90;;;;;;4959592;28;20533;-90
2022/05/26 09:41:44;;;;;;;2.30;0.80;;;21.10;99.90;;;;;;4960408;28;20160;-90
2022/05/26 09:44:54;;;;;;;1.52;0.60;;;21.20;99.90;;;;;;4975213;28;20066;-91
2022/05/26 09:47:37;;;;;;;2.22;0.73;;;21.40;99.90;;;;;;4973361;28;20066;-91
2022/05/26 09:50:12;;;;;;;4.18;0.70;;;21.30;99.90;;;;;;4965670;28;20399;-90
2022/05/26 09:52:49;;;;;;;1.75;0.60;;;21.50;99.90;;;;;;4971265;28;20284;-91
2022/05/26 09:55:26;;;;;;;1.48;0.70;;;21.40;99.90;;;;;;4973099;28;20031;-91
2022/05/26 09:58:37;;;;;;;1.38;0.88;;;21.60;99.90;;;;;;4966523;28;20044;-91
2022/05/26 10:01:12;;;;;;;1.40;0.63;;;21.60;99.90;;;;;;4903441;29;20143;-91
2022/05/26 10:03:59;;;;;;;2.65;0.80;;;21.70;99.90;;;;;;4900269;29;20512;-91
2022/05/26 10:06:35;;;;;;;1.65;0.77;;;21.90;99.90;;;;;;4909696;29;20045;-91
2022/05/26 10:09:06;;;;;;;2.10;0.80;;;21.90;99.90;;;;;;4899570;29;20437;-91
2022/05/26 10:11:47;;;;;;;2.78;0.80;;;21.60;99.90;;;;;;4897942;29;20044;-90
2022/05/26 10:14:34;;;;;;;1.38;0.80;;;21.70;99.90;;;;;;4911038;29;20035;-90
2022/05/26 10:17:23;;;;;;;1.90;0.77;;;21.70;99.90;;;;;;4904388;29;20126;-91
2022/05/26 10:20:29;;;;;;;1.85;0.95;;;21.70;99.90;;;;;;4896020;29;20501;-92
2022/05/26 10:23:14;;;;;;;3.28;0.90;;;21.90;99.90;;;;;;4900279;29;20040;-92
2022/05/26 10:26:10;;;;;;;1.88;0.80;;;21.90;99.90;;;;;;4890642;29;20047;-92
2022/05/26 10:29:00;;;;;;;1.95;0.80;;;21.70;99.90;;;;;;4902798;29;20048;-92
2022/05/26 10:31:45;;;;;;;1.55;0.70;;;21.70;99.90;;;;;;4936794;28;20494;-90
2022/05/26 10:34:14;;;;;;;2.25;0.80;;;21.80;99.90;;;;;;4967552;28;20089;-89
2022/05/26 10:37:04;;;;;;;1.42;0.77;;;21.90;99.90;;;;;;4969584;28;20041;-88
2022/05/26 10:39:42;;;;;;;1.85;0.75;;;22.20;99.90;;;;;;4958699;28;20030;-90
2022/05/26 10:42:16;;;;;;;1.38;0.65;;;22.30;99.90;;;;;;4973171;28;20022;-92
2022/05/26 10:44:49;;;;;;;2.08;0.80;;;21.90;99.90;;;;;;4972145;28;20543;-91
2022/05/26 10:47:19;;;;;;;1.98;0.80;;;21.90;99.90;;;;;;4970584;28;20031;-93
2022/05/26 10:49:47;;;;;;;0.88;0.63;;;21.90;99.90;;;;;;4980286;28;20031;-95
2022/05/26 10:52:18;;;;;;;3.03;0.80;;;22.00;99.90;;;;;;4959502;28;20031;-90
2022/05/26 10:54:55;;;;;;;2.00;0.70;;;22.20;99.90;;;;;;4977419;28;20023;-91
2022/05/26 10:57:42;;;;;;;1.48;0.80;;;22.50;99.90;;;;;;4960358;28;20060;-95
2022/05/26 11:00:17;;;;;;;1.88;0.93;;;22.80;99.90;;;;;;4966272;28;20121;-89
2022/05/26 11:03:01;;;;;;;0.95;0.80;;;22.70;99.90;;;;;;4940891;28;20023;-90
2022/05/26 11:05:36;;;;;;;3.55;1.10;;;22.60;99.90;;;;;;4977922;28;20574;-93
2022/05/26 11:08:36;;;;;;;2.25;0.98;;;22.60;99.90;;;;;;4977393;28;20043;-94
2022/05/26 11:11:13;;;;;;;3.70;1.05;;;22.70;99.90;;;;;;4972309;28;20042;-93
2022/05/26 11:14:12;;;;;;;2.60;1.20;;;22.70;99.90;;;;;;4982600;28;20420;-89
2022/05/26 11:19:44;;;;;;;2.22;1.00;;;23.00;99.90;;;;;;4979681;28;20062;-94
2022/05/26 11:22:13;;;;;;;1.25;0.70;;;23.00;99.90;;;;;;4958431;28;20027;-89
2022/05/26 11:24:40;;;;;;;2.65;0.90;;;22.90;99.90;;;;;;4977851;28;20026;-93
2022/05/26 11:27:15;;;;;;;2.45;0.90;;;23.10;99.90;;;;;;4958806;28;20030;-93
2022/05/26 11:29:44;;;;;;;1.77;0.90;;;23.20;99.90;;;;;;4968040;28;20491;-95
2022/05/26 11:38:20;;;;;;;3.58;1.70;;;23.80;99.90;;;;;;4978282;28;20575;-89
2022/05/26 11:41:08;;;;;;;2.70;1.20;;;24.00;99.90;;;;;;4965612;28;20043;-89
2022/05/26 11:44:01;;;;;;;4.30;3.67;;;24.50;99.90;;;;;;4961436;28;20027;-89
2022/05/26 11:46:56;;;;;;;2.28;1.60;;;24.80;99.90;;;;;;4943447;28;20035;-89
2022/05/26 11:50:00;;;;;;;4.05;2.25;;;27.20;99.90;;;;;;4976019;28;20121;-89
2022/05/26 11:52:35;;;;;;;3.00;2.15;;;29.70;99.90;;;;;;4975865;28;20042;-89
2022/05/26 11:55:03;;;;;;;5.15;1.27;;;31.00;99.90;;;;;;4957506;28;20525;-88
2022/05/26 11:57:35;;;;;;;3.30;1.30;;;31.70;99.90;;;;;;4958520;28;20387;-89
2022/05/26 12:00:20;;;;;;;3.17;1.67;;;31.50;99.90;;;;;;4972627;28;20031;-88
2022/05/26 12:02:50;;;;;;;2.47;0.90;;;32.00;99.90;;;;;;4939213;28;20027;-89
2022/05/26 12:05:28;;;;;;;2.22;1.08;;;31.90;99.90;;;;;;4985618;28;20022;-89
2022/05/26 12:08:23;;;;;;;2.53;1.33;;;31.90;99.90;;;;;;4977412;28;20129;-90
2022/05/26 12:11:01;;;;;;;3.10;0.88;;;32.20;99.90;;;;;;4973830;28;20492;-89
2022/05/26 12:13:29;;;;;;;2.10;0.80;;;32.40;99.90;;;;;;4969024;28;20027;-89
2022/05/26 12:16:15;;;;;;;1.25;0.75;;;32.80;99.90;;;;;;4968285;28;20046;-90
2022/05/26 12:19:00;;;;;;;1.60;0.82;;;32.70;99.90;;;;;;4965752;28;20058;-89
2022/05/26 12:21:28;;;;;;;3.70;1.00;;;32.80;99.90;;;;;;4974301;28;20105;-90
2022/05/26 12:23:58;;;;;;;1.58;0.95;;;33.30;99.90;;;;;;4973634;28;20034;-90
2022/05/26 12:26:47;;;;;;;1.58;0.80;;;33.30;99.90;;;;;;4975048;28;20381;-90
2022/05/26 12:29:47;;;;;;;4.45;0.90;;;33.10;99.90;;;;;;4975730;28;20031;-90
2022/05/26 12:32:36;;;;;;;2.22;0.90;;;33.30;99.90;;;;;;4958908;28;20051;-90
2022/05/26 12:35:43;;;;;;;1.70;0.80;;;32.50;99.90;;;;;;4975947;28;20039;-90
2022/05/26 12:38:53;;;;;;;1.30;0.90;;;32.00;99.90;;;;;;4967317;28;20041;-89
2022/05/26 12:41:46;;;;;;;1.60;1.10;;;32.20;99.90;;;;;;4876356;29;20041;-90
2022/05/26 12:44:33;;;;;;;1.17;0.70;;;31.50;99.90;;;;;;4885041;29;20111;-90
2022/05/26 12:47:16;;;;;;;4.53;0.90;;;32.00;99.90;;;;;;4881831;29;20053;-90
2022/05/26 12:49:54;;;;;;;2.80;0.90;;;31.70;99.90;;;;;;4881276;29;20049;-90
2022/05/26 12:52:44;;;;;;;2.75;1.10;;;31.80;99.90;;;;;;4877787;29;20097;-90
2022/05/26 12:55:22;;;;;;;1.75;1.00;;;31.60;99.90;;;;;;4880696;29;20081;-90
2022/05/26 12:58:17;;;;;;;0.95;0.80;;;31.20;99.90;;;;;;4881299;29;20029;-90
2022/05/26 13:00:46;;;;;;;3.33;1.17;;;30.00;99.90;;;;;;4878140;29;20114;-90
2022/05/26 13:03:32;;;;;;;2.17;0.80;;;30.30;99.90;;;;;;4880115;29;20060;-90
2022/05/26 13:06:00;;;;;;;2.30;1.10;;;30.10;99.90;;;;;;4878413;29;20044;-90
2022/05/26 13:08:30;;;;;;;3.42;1.00;;;29.50;99.90;;;;;;4876995;29;20036;-90
2022/05/26 13:10:59;;;;;;;2.63;0.95;;;29.80;99.90;;;;;;4880065;29;20439;-90
2022/05/26 13:13:40;;;;;;;2.38;1.10;;;30.00;99.90;;;;;;4976491;28;20081;-90
2022/05/26 13:16:26;;;;;;;2.80;0.90;;;29.80;99.90;;;;;;4967757;28;20043;-90
2022/05/26 13:18:53;;;;;;;1.55;0.80;;;29.70;99.90;;;;;;4971908;28;20030;-90
2022/05/26 13:21:29;;;;;;;1.20;0.90;;;29.40;99.90;;;;;;4977454;28;20022;-90
2022/05/26 13:23:55;;;;;;;2.08;0.80;;;29.90;99.90;;;;;;4961556;28;20097;-90
2022/05/26 13:26:21;;;;;;;2.53;1.20;;;30.30;99.90;;;;;;4962313;28;20027;-89
2022/05/26 13:28:50;;;;;;;3.63;1.60;;;29.40;99.90;;;;;;4975836;28;20045;-90
2022/05/26 13:34:04;;;;;;;2.50;0.80;;;29.80;99.90;;;;;;4977787;28;20443;-91
2022/05/26 13:36:42;;;;;;;2.28;0.95;;;29.90;99.90;;;;;;4961314;28;20030;-90
2022/05/26 13:39:11;;;;;;;2.28;0.82;;;30.30;99.90;;;;;;4977318;28;20098;-90
2022/05/26 13:41:39;;;;;;;1.38;0.80;;;30.30;99.90;;;;;;4975734;28;20029;-90
2022/05/26 13:44:07;;;;;;;4.55;1.10;;;30.40;99.90;;;;;;4978639;28;20057;-90
2022/05/26 13:46:48;;;;;;;3.08;0.90;;;30.20;99.90;;;;;;4961491;28;20038;-90
2022/05/26 13:49:36;;;;;;;2.35;0.75;;;30.20;99.90;;;;;;4981074;28;20034;-90
2022/05/26 13:52:22;;;;;;;2.35;0.82;;;29.70;99.90;;;;;;4983751;28;20049;-88
2022/05/26 13:54:58;;;;;;;2.05;1.25;;;29.50;99.90;;;;;;4961123;28;20035;-87
2022/05/26 13:57:47;;;;;;;2.13;0.85;;;30.20;99.90;;;;;;4960622;28;20027;-88
2022/05/26 14:00:31;;;;;;;1.38;0.75;;;29.80;99.90;;;;;;4976741;28;20035;-88
2022/05/26 14:03:02;;;;;;;2.13;0.90;;;29.90;99.90;;;;;;4959632;28;20457;-88
2022/05/26 14:05:32;;;;;;;1.75;0.80;;;29.60;99.90;;;;;;4959869;28;20026;-88